Time;durP1;ratioP1;P1;durP2;ratioP2;P2;SDS_P1;SDS_P2;PMS_P1;PMS_P2;Temp;Humidity;BMP_temperature;BMP_pressure;BME280_temperature;BME280_humidity;BME280_pressure;Samples;Min_cycle;Max_cycle;Signal;HPM_P1;HPM_P2
2021/04/11 00:00:21;;;;;;;6.73;2.00;;;9.60;99.90;;;;;;5038612;28;20260;-67
2021/04/11 00:02:48;;;;;;;7.67;1.87;;;9.70;99.90;;;;;;5043203;28;20231;-69
2021/04/11 00:05:17;;;;;;;8.50;2.23;;;9.80;99.90;;;;;;5026734;28;20196;-68
2021/04/11 00:07:43;;;;;;;5.20;2.10;;;9.80;99.90;;;;;;5028625;28;20227;-68
2021/04/11 00:10:17;;;;;;;6.53;2.40;;;9.70;99.90;;;;;;5020278;28;20273;-69
2021/04/11 00:12:43;;;;;;;3.77;1.83;;;9.50;99.90;;;;;;5045714;28;20187;-69
2021/04/11 00:15:12;;;;;;;7.67;2.27;;;9.60;99.90;;;;;;5015578;28;20318;-68
2021/04/11 00:17:38;;;;;;;6.90;1.80;;;9.40;99.90;;;;;;5027682;28;20352;-68
2021/04/11 00:20:06;;;;;;;3.40;1.60;;;9.30;99.90;;;;;;5034601;28;20186;-68
2021/04/11 00:22:33;;;;;;;6.07;2.40;;;9.40;99.90;;;;;;5029587;28;20686;-69
2021/04/11 00:24:59;;;;;;;5.80;2.37;;;9.40;99.90;;;;;;5032869;28;20201;-68
2021/04/11 00:27:25;;;;;;;6.67;1.90;;;9.10;99.90;;;;;;5028203;28;20207;-68
2021/04/11 00:29:52;;;;;;;6.93;1.90;;;9.00;99.90;;;;;;5039094;28;20194;-67
2021/04/11 00:32:18;;;;;;;7.03;2.03;;;8.90;99.90;;;;;;5032023;28;20202;-69
2021/04/11 00:34:44;;;;;;;5.97;2.13;;;8.80;99.90;;;;;;5027464;28;20185;-68
2021/04/11 00:37:10;;;;;;;3.83;1.80;;;8.90;99.90;;;;;;5028013;28;20246;-68
2021/04/11 00:39:37;;;;;;;5.10;1.87;;;8.90;99.90;;;;;;5026499;28;20605;-68
2021/04/11 00:42:19;;;;;;;4.40;1.70;;;9.00;99.90;;;;;;5026951;28;20204;-68
2021/04/11 00:44:47;;;;;;;6.17;2.03;;;9.00;99.90;;;;;;5022742;28;20201;-68
2021/04/11 00:47:15;;;;;;;6.67;2.07;;;8.70;99.90;;;;;;5029189;28;20291;-69
2021/04/11 00:49:46;;;;;;;4.90;2.23;;;8.80;99.90;;;;;;5027806;28;20180;-68
2021/04/11 00:52:15;;;;;;;7.73;2.10;;;8.70;99.90;;;;;;5023049;28;20271;-69
2021/04/11 00:54:42;;;;;;;11.00;2.27;;;8.60;99.90;;;;;;5032194;28;20203;-69
2021/04/11 00:57:12;;;;;;;5.20;1.97;;;8.60;99.90;;;;;;5027969;28;20819;-68
2021/04/11 00:59:38;;;;;;;6.53;2.20;;;8.50;99.90;;;;;;5021084;28;20490;-68
2021/04/11 01:02:05;;;;;;;6.73;1.70;;;8.50;99.90;;;;;;5028050;28;20648;-68
2021/04/11 01:04:32;;;;;;;6.70;2.47;;;8.60;99.90;;;;;;5033518;28;20188;-68
2021/04/11 01:07:11;;;;;;;8.27;2.03;;;8.50;99.90;;;;;;5035251;28;20188;-68
2021/04/11 01:09:46;;;;;;;10.23;2.03;;;8.50;99.90;;;;;;5042997;28;20651;-68
2021/04/11 01:12:18;;;;;;;7.70;1.97;;;8.50;99.90;;;;;;5044077;28;20199;-68
2021/04/11 01:14:47;;;;;;;10.50;2.47;;;8.50;99.90;;;;;;5029996;28;20196;-69
2021/04/11 01:17:23;;;;;;;7.07;2.30;;;8.50;99.90;;;;;;5027838;28;20329;-68
2021/04/11 01:19:53;;;;;;;6.37;2.23;;;8.50;99.90;;;;;;5029042;28;20195;-68
2021/04/11 01:23:21;;;;;;;7.83;2.20;;;8.50;99.90;;;;;;5022764;28;20231;-65
2021/04/11 01:25:51;;;;;;;6.00;1.83;;;8.60;99.90;;;;;;4967162;28;20204;-66
2021/04/11 01:28:35;;;;;;;4.40;2.30;;;8.50;99.90;;;;;;5018681;28;20606;-65
2021/04/11 01:31:09;;;;;;;4.53;2.40;;;8.50;99.90;;;;;;5002901;28;20599;-66
2021/04/11 01:33:43;;;;;;;8.43;2.10;;;8.50;99.90;;;;;;5011825;28;20656;-69
2021/04/11 01:36:15;;;;;;;6.47;1.80;;;8.50;99.90;;;;;;5020861;28;20612;-68
2021/04/11 01:38:45;;;;;;;9.60;2.30;;;8.50;99.90;;;;;;5026887;28;20250;-68
2021/04/11 01:41:37;;;;;;;7.77;1.83;;;8.40;99.90;;;;;;5026204;28;20202;-68
2021/04/11 01:44:08;;;;;;;8.57;1.90;;;8.40;99.90;;;;;;5037426;28;20196;-69
2021/04/11 01:46:35;;;;;;;9.00;2.27;;;8.50;99.90;;;;;;5010179;28;20190;-67
2021/04/11 01:49:03;;;;;;;5.53;1.97;;;8.50;99.90;;;;;;5004870;28;20311;-69
2021/04/11 01:51:36;;;;;;;6.53;2.23;;;8.40;99.90;;;;;;5021858;28;20668;-69
2021/04/11 01:54:16;;;;;;;8.67;2.27;;;8.60;99.90;;;;;;5022750;28;20223;-65
2021/04/11 01:56:45;;;;;;;7.03;2.30;;;8.50;99.90;;;;;;5009129;28;20216;-68
2021/04/11 01:59:23;;;;;;;8.67;2.53;;;8.70;99.90;;;;;;5009096;28;20288;-65
2021/04/11 02:01:53;;;;;;;5.43;2.00;;;8.60;99.90;;;;;;5003521;28;20200;-67
2021/04/11 02:04:41;;;;;;;6.47;1.87;;;8.50;99.90;;;;;;5029145;28;20210;-70
2021/04/11 02:07:11;;;;;;;4.17;2.00;;;8.30;99.90;;;;;;5010904;28;20203;-70
2021/04/11 02:09:46;;;;;;;10.17;2.23;;;8.20;99.90;;;;;;5022418;28;20196;-68
2021/04/11 02:12:17;;;;;;;5.50;2.13;;;8.40;99.90;;;;;;5007508;28;20191;-68
2021/04/11 02:14:58;;;;;;;6.20;2.10;;;8.30;99.90;;;;;;5027150;28;20686;-67
2021/04/11 02:17:27;;;;;;;6.73;2.27;;;8.40;99.90;;;;;;5014765;28;20227;-70
2021/04/11 02:19:59;;;;;;;7.17;2.23;;;8.30;99.90;;;;;;5010018;28;20199;-70
2021/04/11 02:22:34;;;;;;;12.10;2.43;;;8.40;99.90;;;;;;5009951;28;20220;-68
2021/04/11 02:25:05;;;;;;;7.87;2.30;;;8.40;99.90;;;;;;5005946;28;20560;-68
2021/04/11 02:27:36;;;;;;;7.83;2.20;;;8.30;99.90;;;;;;5007260;28;20505;-68
2021/04/11 02:30:12;;;;;;;4.10;2.03;;;8.40;99.90;;;;;;5011162;28;20188;-68
2021/04/11 02:32:42;;;;;;;7.80;2.30;;;8.40;99.90;;;;;;5007399;28;20242;-67
2021/04/11 02:35:17;;;;;;;6.10;2.13;;;8.60;99.90;;;;;;5009064;28;20219;-68
2021/04/11 02:37:54;;;;;;;10.03;2.10;;;8.50;99.90;;;;;;5025667;28;20223;-68
2021/04/11 02:40:47;;;;;;;4.60;2.37;;;8.30;99.90;;;;;;5009336;28;20302;-68
2021/04/11 02:43:22;;;;;;;10.53;2.40;;;8.40;99.90;;;;;;5010513;28;20636;-67
2021/04/11 02:46:00;;;;;;;8.30;2.40;;;8.70;99.90;;;;;;5026971;28;20321;-67
2021/04/11 02:48:35;;;;;;;8.33;2.63;;;8.50;99.90;;;;;;5006388;28;20569;-68
2021/04/11 02:51:07;;;;;;;8.23;2.30;;;8.40;99.90;;;;;;5008430;28;20193;-70
2021/04/11 02:53:38;;;;;;;4.43;2.07;;;8.20;99.90;;;;;;5024446;28;20275;-69
2021/04/11 02:56:10;;;;;;;5.87;2.40;;;8.30;99.90;;;;;;5007662;28;20185;-67
2021/04/11 02:58:40;;;;;;;8.43;2.47;;;8.40;99.90;;;;;;5006605;28;20832;-67
2021/04/11 03:01:15;;;;;;;13.03;2.20;;;8.50;99.90;;;;;;5039283;28;20192;-68
2021/04/11 03:03:45;;;;;;;6.93;2.47;;;8.70;99.90;;;;;;4999197;28;20215;-67
2021/04/11 03:06:28;;;;;;;8.40;2.43;;;8.20;99.90;;;;;;5006749;28;20193;-70
2021/04/11 03:09:08;;;;;;;8.17;2.77;;;8.10;99.90;;;;;;5011198;28;20184;-70
2021/04/11 03:11:55;;;;;;;6.60;2.50;;;8.00;99.90;;;;;;5008319;28;20249;-69
2021/04/11 03:14:29;;;;;;;7.47;2.60;;;7.90;99.90;;;;;;5007394;28;20196;-70
2021/04/11 03:16:58;;;;;;;7.50;2.47;;;7.90;99.90;;;;;;5010301;28;20208;-70
2021/04/11 03:19:40;;;;;;;8.13;2.73;;;7.90;99.90;;;;;;5013930;28;20530;-70
2021/04/11 03:22:21;;;;;;;8.97;2.27;;;7.80;99.90;;;;;;5012689;28;20184;-70
2021/04/11 03:24:52;;;;;;;6.93;2.47;;;7.90;99.90;;;;;;5015631;28;20192;-70
2021/04/11 03:27:44;;;;;;;8.80;2.50;;;8.00;99.90;;;;;;5026386;28;20204;-66
2021/04/11 03:30:29;;;;;;;6.03;2.60;;;8.10;99.90;;;;;;5013537;28;20219;-68
2021/04/11 03:33:17;;;;;;;7.97;2.70;;;7.90;99.90;;;;;;5003278;28;20192;-68
2021/04/11 03:35:53;;;;;;;6.67;2.67;;;8.00;99.90;;;;;;5007530;28;20235;-68
2021/04/11 03:38:32;;;;;;;5.57;1.87;;;7.90;99.90;;;;;;5024784;28;20257;-71
2021/04/11 03:41:01;;;;;;;7.73;2.50;;;7.90;99.90;;;;;;5018222;28;20271;-71
2021/04/11 03:43:52;;;;;;;8.87;2.33;;;7.90;99.90;;;;;;5018495;28;20196;-70
2021/04/11 03:46:48;;;;;;;7.57;2.27;;;7.90;99.90;;;;;;5016321;28;20201;-69
2021/04/11 03:49:40;;;;;;;8.67;2.00;;;7.90;99.90;;;;;;5019135;28;20305;-70
2021/04/11 03:52:33;;;;;;;6.67;2.40;;;8.00;99.90;;;;;;5019069;28;20187;-71
2021/04/11 03:55:11;;;;;;;7.63;2.30;;;8.00;99.90;;;;;;5015126;28;20192;-71
2021/04/11 03:57:56;;;;;;;8.30;2.60;;;8.10;99.90;;;;;;5014590;28;20208;-71
2021/04/11 04:00:47;;;;;;;9.10;2.50;;;8.20;99.90;;;;;;5031375;28;20323;-71
2021/04/11 04:03:23;;;;;;;7.60;2.60;;;8.30;99.90;;;;;;5015960;28;20604;-71
2021/04/11 04:06:03;;;;;;;8.43;3.03;;;8.20;99.90;;;;;;5022736;28;20249;-69
2021/04/11 04:08:39;;;;;;;11.43;2.73;;;8.10;99.90;;;;;;5034328;28;20200;-69
2021/04/11 04:12:11;;;;;;;8.60;2.00;;;8.10;99.90;;;;;;5027177;28;20188;-68
2021/04/11 04:15:21;;;;;;;6.57;2.13;;;8.10;99.90;;;;;;5001568;28;20551;-68
2021/04/11 04:18:36;;;;;;;10.43;2.20;;;8.10;99.90;;;;;;5017877;28;20223;-67
2021/04/11 04:21:12;;;;;;;4.40;1.90;;;8.10;99.90;;;;;;5015117;28;20218;-67
2021/04/11 04:23:54;;;;;;;7.10;2.20;;;8.20;99.90;;;;;;5016115;28;20193;-67
2021/04/11 04:26:31;;;;;;;7.90;1.93;;;8.10;99.90;;;;;;5016914;28;20733;-68
2021/04/11 04:29:34;;;;;;;8.33;2.57;;;8.00;99.90;;;;;;5035827;28;20279;-66
2021/04/11 04:32:41;;;;;;;6.27;2.00;;;8.10;99.90;;;;;;5009326;28;20192;-67
2021/04/11 04:35:55;;;;;;;6.70;2.13;;;8.00;99.90;;;;;;5030262;28;20486;-67
2021/04/11 04:38:51;;;;;;;6.50;2.73;;;8.30;99.90;;;;;;5031151;28;20220;-67
2021/04/11 04:41:36;;;;;;;10.20;2.97;;;8.20;99.90;;;;;;5031346;28;20223;-67
2021/04/11 04:44:37;;;;;;;10.53;2.13;;;8.40;99.90;;;;;;5030968;28;20696;-67
2021/04/11 04:47:25;;;;;;;7.13;2.27;;;8.50;99.90;;;;;;5010015;28;20690;-68
2021/04/11 04:50:33;;;;;;;5.40;2.00;;;8.40;99.90;;;;;;5001346;28;20192;-68
2021/04/11 04:53:26;;;;;;;6.30;2.33;;;8.50;99.90;;;;;;5031394;28;20278;-68
2021/04/11 04:56:03;;;;;;;9.07;2.60;;;8.80;99.90;;;;;;5011370;28;21858;-69
2021/04/11 04:58:44;;;;;;;5.07;2.13;;;9.00;99.90;;;;;;5015672;28;20227;-68
2021/04/11 05:01:26;;;;;;;10.27;2.27;;;9.20;99.90;;;;;;5014933;28;20195;-68
2021/04/11 05:04:13;;;;;;;11.13;2.43;;;9.40;99.90;;;;;;5016702;28;20206;-68
2021/04/11 05:07:01;;;;;;;5.33;2.50;;;9.40;99.90;;;;;;5020866;28;20196;-68
2021/04/11 05:09:52;;;;;;;;;;;;;;;;;;;;;
2021/04/11 05:12:24;;;;;;;15.17;2.50;;;9.50;99.90;;;;;;5031387;28;20222;-68
2021/04/11 05:15:24;;;;;;;7.50;2.60;;;9.60;99.90;;;;;;5015668;28;20207;-68
2021/04/11 05:18:01;;;;;;;13.23;2.30;;;9.70;99.90;;;;;;5016959;28;20232;-68
2021/04/11 05:20:34;;;;;;;5.50;1.87;;;9.80;99.90;;;;;;5045095;28;20581;-68
2021/04/11 05:23:36;;;;;;;7.87;2.27;;;9.90;99.90;;;;;;5013152;28;20196;-68
2021/04/11 05:26:45;;;;;;;7.17;1.97;;;9.90;99.90;;;;;;5015781;28;20237;-68
2021/04/11 05:29:34;;;;;;;4.93;1.87;;;10.00;99.90;;;;;;5029897;28;20225;-68
2021/04/11 05:32:03;;;;;;;7.53;2.50;;;10.10;99.90;;;;;;5035280;28;20195;-68
2021/04/11 05:34:41;;;;;;;10.20;2.70;;;10.10;99.90;;;;;;5033488;28;20604;-68
2021/04/11 05:37:49;;;;;;;5.63;1.80;;;10.20;99.90;;;;;;5027757;28;20224;-68
2021/04/11 05:40:32;;;;;;;10.30;1.83;;;10.30;99.90;;;;;;5015449;28;20605;-68
2021/04/11 05:43:33;;;;;;;4.87;2.20;;;10.30;99.90;;;;;;5043399;28;20192;-67
2021/04/11 05:46:41;;;;;;;7.87;2.17;;;10.40;99.90;;;;;;5048116;28;20183;-67
2021/04/11 05:49:19;;;;;;;7.40;2.10;;;10.40;99.90;;;;;;5014372;28;20191;-67
2021/04/11 05:51:56;;;;;;;10.17;2.30;;;10.50;99.90;;;;;;5028207;28;20199;-67
2021/04/11 05:54:35;;;;;;;11.13;2.53;;;10.50;99.90;;;;;;5035205;28;20567;-68
2021/04/11 05:57:13;;;;;;;7.47;2.13;;;10.60;99.90;;;;;;5030857;28;20311;-67
2021/04/11 05:59:47;;;;;;;4.07;2.40;;;10.60;99.90;;;;;;5023125;28;20191;-67
2021/04/11 06:02:49;;;;;;;5.93;1.73;;;10.60;99.90;;;;;;5026308;28;20191;-67
2021/04/11 06:05:21;;;;;;;7.37;2.37;;;10.60;99.90;;;;;;5031254;28;20281;-69
2021/04/11 06:08:24;;;;;;;9.00;2.23;;;10.70;99.90;;;;;;5040507;28;20200;-68
2021/04/11 06:11:22;;;;;;;6.57;2.10;;;10.80;99.90;;;;;;5007629;28;20270;-67
2021/04/11 06:13:59;;;;;;;5.87;2.40;;;10.90;99.90;;;;;;5021129;28;20208;-70
2021/04/11 06:16:30;;;;;;;4.60;2.10;;;11.00;99.90;;;;;;5031707;28;20262;-69
2021/04/11 06:19:03;;;;;;;10.53;2.20;;;11.00;99.90;;;;;;5028109;28;21095;-68
2021/04/11 06:22:35;;;;;;;9.80;1.83;;;10.90;99.90;;;;;;5025885;28;20188;-68
2021/04/11 06:25:50;;;;;;;6.20;2.10;;;10.90;99.90;;;;;;4998184;28;20203;-68
2021/04/11 06:28:50;;;;;;;4.63;1.90;;;11.00;99.90;;;;;;5030537;28;20196;-68
2021/04/11 06:31:37;;;;;;;9.10;2.40;;;11.00;99.90;;;;;;5006912;28;20679;-69
2021/04/11 06:34:26;;;;;;;3.60;1.93;;;11.10;99.90;;;;;;5009067;28;20192;-67
2021/04/11 06:37:25;;;;;;;3.60;1.90;;;11.10;99.90;;;;;;5014787;28;20228;-67
2021/04/11 06:40:02;;;;;;;7.00;2.07;;;11.20;99.90;;;;;;4999867;28;20226;-67
2021/04/11 06:43:20;;;;;;;7.93;1.80;;;11.20;99.90;;;;;;5010995;28;20180;-67
2021/04/11 06:46:25;;;;;;;6.10;1.87;;;11.20;99.90;;;;;;4953176;28;20193;-67
2021/04/11 06:49:17;;;;;;;4.20;2.03;;;11.30;99.90;;;;;;4953521;28;20191;-67
2021/04/11 06:51:49;;;;;;;6.70;2.10;;;11.40;99.90;;;;;;5012399;28;20191;-67
2021/04/11 06:54:54;;;;;;;6.53;1.90;;;11.50;99.90;;;;;;5033092;28;20200;-67
2021/04/11 06:57:43;;;;;;;5.67;1.63;;;11.60;99.90;;;;;;5018183;28;20215;-67
2021/04/11 07:00:44;;;;;;;8.70;2.20;;;11.50;99.90;;;;;;5016250;28;20192;-68
2021/04/11 07:04:01;;;;;;;7.00;2.70;;;11.50;99.90;;;;;;5019693;28;20286;-68
2021/04/11 07:07:18;;;;;;;5.77;2.03;;;11.50;99.90;;;;;;5039611;28;20184;-68
2021/04/11 07:09:58;;;;;;;7.37;2.20;;;11.70;99.90;;;;;;5026963;28;20187;-68
2021/04/11 07:13:26;;;;;;;6.63;2.20;;;11.80;99.90;;;;;;5027195;28;20192;-69
2021/04/11 07:16:15;;;;;;;7.60;2.10;;;11.70;99.90;;;;;;5039064;28;20185;-68
2021/04/11 07:19:09;;;;;;;5.03;2.20;;;11.80;99.90;;;;;;5014992;28;20317;-68
2021/04/11 07:22:06;;;;;;;4.90;2.10;;;11.90;99.90;;;;;;5036728;28;20184;-69
2021/04/11 07:25:02;;;;;;;7.10;2.30;;;12.00;99.90;;;;;;5034771;28;20604;-69
2021/04/11 07:27:56;;;;;;;4.20;2.10;;;12.00;99.90;;;;;;5030242;28;20203;-68
2021/04/11 07:31:03;;;;;;;11.23;2.40;;;12.10;99.90;;;;;;5016962;28;20214;-69
2021/04/11 07:34:33;;;;;;;5.43;2.23;;;12.10;99.90;;;;;;5025422;28;20212;-67
2021/04/11 07:37:41;;;;;;;8.50;1.90;;;12.10;99.90;;;;;;5033971;28;20220;-70
2021/04/11 07:40:44;;;;;;;7.70;2.23;;;12.20;99.90;;;;;;5045351;28;20203;-70
2021/04/11 07:44:05;;;;;;;5.60;1.77;;;12.20;99.90;;;;;;5010246;28;20192;-69
2021/04/11 07:47:07;;;;;;;6.87;2.10;;;12.30;99.90;;;;;;5051114;28;20195;-70
2021/04/11 07:50:16;;;;;;;9.60;2.20;;;12.30;99.90;;;;;;5016587;28;20211;-70
2021/04/11 07:53:36;;;;;;;7.57;2.20;;;12.50;99.90;;;;;;5035815;28;20195;-70
2021/04/11 07:56:56;;;;;;;10.33;2.30;;;12.50;99.90;;;;;;5019768;28;20722;-69
2021/04/11 08:00:24;;;;;;;6.47;2.23;;;12.50;99.90;;;;;;5030948;28;20199;-69
2021/04/11 08:03:42;;;;;;;5.17;2.00;;;12.70;99.90;;;;;;5030999;28;20581;-67
2021/04/11 08:07:08;;;;;;;7.17;2.00;;;12.80;99.90;;;;;;5027595;28;20199;-69
2021/04/11 08:10:40;;;;;;;4.30;2.17;;;12.90;99.90;;;;;;5038937;28;20203;-70
2021/04/11 08:13:33;;;;;;;4.90;2.00;;;13.00;99.90;;;;;;5007098;28;20223;-70
2021/04/11 08:16:18;;;;;;;7.77;2.20;;;13.10;99.90;;;;;;5041981;28;20207;-71
2021/04/11 08:19:17;;;;;;;5.13;2.10;;;13.20;99.90;;;;;;5011503;28;20306;-70
2021/04/11 08:21:50;;;;;;;5.13;1.73;;;13.10;99.90;;;;;;5011970;28;20716;-69
2021/04/11 08:24:45;;;;;;;6.90;1.83;;;13.20;99.90;;;;;;5009268;28;20187;-69
2021/04/11 08:28:05;;;;;;;5.00;1.83;;;13.20;99.90;;;;;;5015331;28;20654;-69
2021/04/11 08:30:49;;;;;;;4.20;1.90;;;13.20;99.90;;;;;;5026094;28;20185;-69
2021/04/11 08:34:04;;;;;;;4.80;1.83;;;13.30;99.90;;;;;;5015665;28;20184;-69
2021/04/11 08:37:16;;;;;;;5.83;1.90;;;13.30;99.90;;;;;;5012822;28;20541;-69
2021/04/11 08:40:14;;;;;;;8.90;2.40;;;13.40;99.90;;;;;;5010590;28;20203;-71
2021/04/11 08:43:43;;;;;;;4.27;1.80;;;13.50;99.90;;;;;;5008748;28;20584;-69
2021/04/11 08:46:59;;;;;;;7.10;1.87;;;13.60;99.90;;;;;;5001883;28;20192;-69
2021/04/11 08:49:43;;;;;;;7.90;2.23;;;13.70;99.90;;;;;;5012431;28;20249;-68
2021/04/11 08:52:42;;;;;;;7.33;2.23;;;13.80;99.90;;;;;;5026634;28;20230;-68
2021/04/11 08:55:35;;;;;;;4.23;1.70;;;13.90;99.90;;;;;;5031040;28;20199;-69
2021/04/11 08:58:49;;;;;;;7.97;2.13;;;13.80;99.90;;;;;;5026005;28;20244;-69
2021/04/11 09:01:42;;;;;;;6.93;2.17;;;13.80;99.90;;;;;;5007927;28;20717;-69
2021/04/11 09:04:55;;;;;;;6.13;1.90;;;13.80;99.90;;;;;;5024200;28;20180;-68
2021/04/11 09:07:52;;;;;;;5.43;1.90;;;13.90;99.90;;;;;;5007960;28;20189;-69
2021/04/11 09:10:55;;;;;;;8.23;1.97;;;14.20;99.90;;;;;;5027182;28;20279;-69
2021/04/11 09:13:48;;;;;;;3.87;1.50;;;14.30;99.90;;;;;;5001591;28;20192;-69
2021/04/11 09:16:58;;;;;;;7.10;1.90;;;14.20;99.90;;;;;;5024846;28;20270;-69
2021/04/11 09:20:24;;;;;;;4.97;1.90;;;14.10;99.90;;;;;;5016282;28;20291;-69
2021/04/11 09:23:23;;;;;;;10.17;2.20;;;14.30;99.90;;;;;;5023203;28;20225;-69
2021/04/11 09:26:11;;;;;;;5.23;1.53;;;14.50;99.90;;;;;;5040053;28;20239;-69
2021/04/11 09:29:11;;;;;;;4.30;2.00;;;14.50;99.90;;;;;;5026517;28;20200;-69
2021/04/11 09:32:20;;;;;;;6.83;1.90;;;14.40;99.90;;;;;;5020693;28;20197;-69
2021/04/11 09:35:19;;;;;;;2.37;1.57;;;14.40;99.90;;;;;;5038483;28;20673;-68
2021/04/11 09:38:29;;;;;;;5.77;1.80;;;14.60;99.90;;;;;;5037275;28;20263;-69
2021/04/11 09:41:30;;;;;;;5.23;1.60;;;14.60;99.90;;;;;;5023093;28;20280;-69
2021/04/11 09:44:40;;;;;;;7.20;1.90;;;14.50;99.90;;;;;;5009145;28;20210;-69
2021/04/11 09:48:15;;;;;;;5.77;1.80;;;14.70;99.90;;;;;;5015259;28;20206;-69
2021/04/11 09:51:08;;;;;;;4.47;1.97;;;15.00;99.90;;;;;;5016047;28;20684;-68
2021/04/11 09:54:08;;;;;;;5.37;1.60;;;15.00;99.90;;;;;;5009287;28;20233;-69
2021/04/11 09:57:16;;;;;;;8.13;2.10;;;15.00;99.90;;;;;;5008166;28;20242;-67
2021/04/11 10:00:24;;;;;;;5.53;1.77;;;15.10;99.90;;;;;;5039067;28;20419;-67
2021/04/11 10:03:52;;;;;;;5.53;2.03;;;15.30;99.90;;;;;;4999306;28;20322;-69
2021/04/11 10:07:16;;;;;;;3.77;1.60;;;15.40;99.90;;;;;;5023392;28;20184;-67
2021/04/11 10:09:50;;;;;;;3.20;1.60;;;15.20;99.90;;;;;;5009595;28;20187;-68
2021/04/11 10:13:33;;;;;;;3.07;1.60;;;15.50;99.90;;;;;;5007694;28;20192;-68
2021/04/11 10:16:56;;;;;;;6.63;1.70;;;15.80;99.90;;;;;;5003469;28;20192;-68
2021/04/11 10:19:45;;;;;;;4.37;2.00;;;15.70;99.90;;;;;;4986816;28;20189;-70
2021/04/11 10:22:24;;;;;;;6.00;1.90;;;15.70;99.90;;;;;;5028096;28;20684;-69
2021/04/11 10:25:24;;;;;;;5.73;1.70;;;15.90;99.90;;;;;;5022675;28;20351;-69
2021/04/11 10:28:16;;;;;;;5.07;1.97;;;16.00;99.90;;;;;;5007851;28;20596;-69
2021/04/11 10:30:49;;;;;;;5.03;2.00;;;16.00;99.90;;;;;;5022465;28;20180;-69
2021/04/11 10:34:19;;;;;;;6.97;1.90;;;16.20;99.90;;;;;;5024335;28;20180;-69
2021/04/11 10:37:01;;;;;;;7.27;1.70;;;16.20;99.90;;;;;;4962299;28;20229;-70
2021/04/11 10:40:01;;;;;;;5.57;2.03;;;16.10;99.90;;;;;;5023196;28;20199;-67
2021/04/11 10:43:13;;;;;;;3.83;2.03;;;16.10;99.90;;;;;;5005427;28;20175;-67
2021/04/11 10:46:11;;;;;;;6.67;1.90;;;15.80;99.90;;;;;;5036250;28;20208;-67
2021/04/11 10:49:39;;;;;;;3.10;1.73;;;15.60;99.90;;;;;;5007809;28;20196;-68
2021/04/11 10:52:19;;;;;;;7.47;1.73;;;15.70;99.90;;;;;;5012914;28;20191;-70
2021/04/11 10:55:31;;;;;;;4.17;1.80;;;15.80;99.90;;;;;;5034233;28;20701;-68
2021/04/11 10:58:27;;;;;;;4.27;2.20;;;15.70;99.90;;;;;;4994766;28;20366;-67
2021/04/11 11:01:24;;;;;;;5.27;1.77;;;15.60;99.90;;;;;;5023748;28;20444;-67
2021/04/11 11:04:24;;;;;;;5.93;1.90;;;15.70;99.90;;;;;;5009908;28;20184;-67
2021/04/11 11:07:20;;;;;;;4.37;1.63;;;15.60;99.90;;;;;;5007890;28;20738;-68
2021/04/11 11:10:22;;;;;;;3.53;1.50;;;15.30;99.90;;;;;;5009943;28;20258;-70
2021/04/11 11:13:20;;;;;;;5.80;1.70;;;15.30;99.90;;;;;;5010965;28;20188;-67
2021/04/11 11:16:08;;;;;;;5.40;1.80;;;15.30;99.90;;;;;;5005716;28;20193;-67
2021/04/11 11:19:19;;;;;;;5.03;1.90;;;15.50;99.90;;;;;;5024335;28;20620;-68
2021/04/11 11:22:07;;;;;;;5.67;1.90;;;15.50;99.90;;;;;;5020300;28;20242;-70
2021/04/11 11:25:13;;;;;;;4.20;1.80;;;15.50;99.90;;;;;;5024648;28;20223;-67
2021/04/11 11:27:58;;;;;;;2.90;1.67;;;15.20;99.90;;;;;;5020355;28;20231;-70
2021/04/11 11:31:24;;;;;;;3.13;1.63;;;15.40;99.90;;;;;;5036353;28;20180;-67
2021/04/11 11:34:13;;;;;;;6.67;2.03;;;15.30;99.90;;;;;;4967083;28;20557;-67
2021/04/11 11:37:06;;;;;;;4.20;1.80;;;15.40;99.90;;;;;;5010498;28;20191;-68
2021/04/11 11:40:06;;;;;;;3.90;1.97;;;15.20;99.90;;;;;;5043857;28;20183;-67
2021/04/11 11:43:29;;;;;;;4.20;1.73;;;15.40;99.90;;;;;;5006483;28;20195;-68
2021/04/11 11:46:29;;;;;;;5.60;1.80;;;15.40;99.90;;;;;;4976928;28;20751;-68
2021/04/11 11:49:07;;;;;;;4.07;1.70;;;15.30;99.90;;;;;;4980148;28;20216;-67
2021/04/11 11:52:12;;;;;;;3.50;1.83;;;15.40;99.90;;;;;;5005839;28;20192;-68
2021/04/11 11:55:20;;;;;;;9.17;1.97;;;15.50;99.90;;;;;;5012193;28;20192;-68
2021/04/11 11:58:29;;;;;;;4.20;1.80;;;15.40;99.90;;;;;;5004283;28;20672;-68
2021/04/11 12:01:06;;;;;;;3.30;1.90;;;15.50;99.90;;;;;;5009949;28;20188;-67
2021/04/11 12:03:37;;;;;;;6.27;2.13;;;15.40;99.90;;;;;;5025477;28;20265;-68
2021/04/11 12:06:35;;;;;;;5.53;1.90;;;15.50;99.90;;;;;;5011020;28;20266;-67
2021/04/11 12:09:29;;;;;;;5.77;1.90;;;15.40;99.90;;;;;;5026425;28;20196;-67
2021/04/11 12:12:26;;;;;;;2.77;1.90;;;15.00;99.90;;;;;;5021340;28;20287;-67
2021/04/11 12:15:07;;;;;;;4.37;1.67;;;15.10;99.90;;;;;;5030955;28;20287;-68
2021/04/11 12:18:25;;;;;;;6.23;1.90;;;15.20;99.90;;;;;;5030785;28;20215;-67
2021/04/11 12:21:19;;;;;;;4.93;1.83;;;15.10;99.90;;;;;;5026810;28;20185;-67
2021/04/11 12:24:20;;;;;;;5.20;1.70;;;15.30;99.90;;;;;;5028636;28;20183;-67
2021/04/11 12:26:56;;;;;;;6.83;1.90;;;15.20;99.90;;;;;;5040788;28;20224;-67
2021/04/11 12:29:33;;;;;;;7.20;2.10;;;15.20;99.90;;;;;;5015089;28;20183;-68
2021/04/11 12:32:38;;;;;;;4.20;2.00;;;15.10;99.90;;;;;;5009973;28;20195;-67
2021/04/11 12:35:25;;;;;;;3.93;1.90;;;15.20;99.90;;;;;;5018188;28;20333;-68
2021/04/11 12:38:42;;;;;;;4.23;1.50;;;15.30;99.90;;;;;;5019972;28;20269;-68
2021/04/11 12:41:35;;;;;;;3.83;1.90;;;15.20;99.90;;;;;;5034695;28;20187;-68
2021/04/11 12:44:33;;;;;;;3.60;1.97;;;15.10;99.90;;;;;;5030489;28;20192;-68
2021/04/11 12:47:19;;;;;;;4.80;1.97;;;15.20;99.90;;;;;;5017628;28;20183;-67
2021/04/11 12:49:56;;;;;;;3.93;2.30;;;15.20;99.90;;;;;;5051207;28;20656;-67
2021/04/11 12:52:42;;;;;;;9.53;1.90;;;15.30;99.90;;;;;;5007308;28;20177;-68
2021/04/11 12:55:50;;;;;;;4.10;1.77;;;15.10;99.90;;;;;;5008843;28;20194;-68
2021/04/11 12:58:54;;;;;;;2.77;1.83;;;15.00;99.90;;;;;;5030488;28;20224;-67
2021/04/11 13:01:54;;;;;;;8.83;2.13;;;15.00;99.90;;;;;;5046953;28;20179;-67
2021/04/11 13:04:41;;;;;;;3.43;2.03;;;15.10;99.90;;;;;;5016536;28;20184;-67
2021/04/11 13:07:28;;;;;;;6.60;2.10;;;15.10;99.90;;;;;;5030318;28;20245;-67
2021/04/11 13:10:28;;;;;;;8.00;2.20;;;14.90;99.90;;;;;;5045924;28;20203;-67
2021/04/11 13:13:48;;;;;;;4.97;2.23;;;14.80;99.90;;;;;;5046900;28;20191;-69
2021/04/11 13:16:53;;;;;;;3.23;2.00;;;14.90;99.90;;;;;;5031478;28;20610;-68
2021/04/11 13:19:26;;;;;;;6.40;2.17;;;15.10;99.90;;;;;;5015618;28;20249;-67
2021/04/11 13:22:21;;;;;;;2.40;1.67;;;15.10;99.90;;;;;;5028721;28;20251;-68
2021/04/11 13:25:33;;;;;;;6.83;2.07;;;15.00;99.90;;;;;;5029914;28;20182;-68
2021/04/11 13:28:07;;;;;;;5.43;2.00;;;14.90;99.90;;;;;;5015572;28;20221;-67
2021/04/11 13:30:48;;;;;;;8.00;1.93;;;14.80;99.90;;;;;;5031738;28;20830;-67
2021/04/11 13:33:30;;;;;;;3.93;2.00;;;14.70;99.90;;;;;;5030743;28;20434;-68
2021/04/11 13:36:04;;;;;;;4.80;2.23;;;14.70;99.90;;;;;;5017460;28;20184;-68
2021/04/11 13:38:41;;;;;;;5.73;2.40;;;14.60;99.90;;;;;;5035893;28;20211;-68
2021/04/11 13:41:36;;;;;;;3.57;2.10;;;14.50;99.90;;;;;;5014407;28;20183;-69
2021/04/11 13:44:59;;;;;;;4.70;2.27;;;14.50;99.90;;;;;;5029726;28;20196;-68
2021/04/11 13:48:10;;;;;;;4.33;2.10;;;14.50;99.90;;;;;;5013145;28;20243;-68
2021/04/11 13:51:14;;;;;;;6.83;2.37;;;14.50;99.90;;;;;;5020274;28;20180;-68
2021/04/11 13:53:53;;;;;;;3.47;2.00;;;14.60;99.90;;;;;;5015833;28;20191;-69
2021/04/11 13:56:59;;;;;;;5.50;2.40;;;14.50;99.90;;;;;;5009662;28;20195;-69
2021/04/11 14:00:14;;;;;;;4.47;2.20;;;14.40;99.90;;;;;;5003489;28;20200;-69
2021/04/11 14:02:49;;;;;;;9.57;2.30;;;14.40;99.90;;;;;;5011376;28;20671;-69
2021/04/11 14:05:37;;;;;;;3.40;2.10;;;14.30;99.90;;;;;;5019825;28;20733;-69
2021/04/11 14:08:18;;;;;;;6.90;2.30;;;14.40;99.90;;;;;;5025831;28;20192;-69
2021/04/11 14:11:21;;;;;;;10.93;2.23;;;14.30;99.90;;;;;;5027150;28;20188;-69
2021/04/11 14:14:02;;;;;;;6.13;2.10;;;14.30;99.90;;;;;;5033861;28;20588;-66
2021/04/11 14:17:03;;;;;;;4.77;2.00;;;14.20;99.90;;;;;;5012962;28;20230;-69
2021/04/11 14:19:45;;;;;;;5.00;2.17;;;14.00;99.90;;;;;;5030285;28;20187;-67
2021/04/11 14:22:43;;;;;;;4.60;2.20;;;14.20;99.90;;;;;;5014873;28;20633;-70
2021/04/11 14:25:22;;;;;;;4.90;2.07;;;14.10;99.90;;;;;;5030282;28;20226;-67
2021/04/11 14:28:10;;;;;;;2.43;1.97;;;14.10;99.90;;;;;;5030525;28;20196;-70
2021/04/11 14:31:11;;;;;;;4.63;2.10;;;14.10;99.90;;;;;;5027209;28;20226;-69
2021/04/11 14:34:03;;;;;;;7.17;2.43;;;14.10;99.90;;;;;;5032430;28;20214;-69
2021/04/11 14:37:04;;;;;;;4.23;2.10;;;14.10;99.90;;;;;;5026650;28;20645;-69
2021/04/11 14:39:52;;;;;;;5.27;2.27;;;14.00;99.90;;;;;;5014799;28;20604;-69
2021/04/11 14:42:39;;;;;;;5.80;2.40;;;14.00;99.90;;;;;;5031510;28;20214;-69
2021/04/11 14:45:16;;;;;;;5.73;2.20;;;13.80;99.90;;;;;;5012623;28;20192;-69
2021/04/11 14:48:14;;;;;;;4.03;2.00;;;13.70;99.90;;;;;;5013514;28;20176;-67
2021/04/11 14:50:46;;;;;;;9.93;2.30;;;13.40;99.90;;;;;;5022414;28;20200;-67